Zim Mumbai — P3BA7 — position and weather

sailwx.info

Track history (hours):
 
Tides and Currents Weather Stations Pressure Air Temp Water Temp Dewpoint Dewpoint Depression Visibility Wind Speed Wind Dir Waves Ship Positions

Zim Mumbai

Last reported at 2016-Dec-08 23:28 UTC. Time now 2016-Dec-09 00:01 UTC.
Position S 33°60' E 018°09'.

Length 195.7 m; beam 32.3 m; draft 11.5 m.

Type: Cargo ship. MMSI: 212160000.

Date/timePositionNaut miles runAvg speedWind from/ knotsBaromVisibWave heightAir tempDewpointWater temp
2016-Dec-08 23:28S 33°60' E 018°09'1 1.0
2016-Dec-08 22:33S 33°59' E 018°08'2 1.6
2016-Dec-08 21:21S 33°59' E 018°10'4 0.6
2016-Dec-08 15:07S 33°60' E 018°06'  
2016-Dec-06 00:22S 30°27' E 030°49'1012.7
2016-Dec-05 23:33S 30°19' E 030°55'1313.4
2016-Dec-05 22:33S 30°08' E 031°04'1211.8
2016-Dec-05 21:33S 29°58' E 031°11'9 8.6
2016-Dec-05 20:33S 29°51' E 031°04'3 2.8
2016-Dec-05 19:32S 29°53' E 031°02'0 0.0
2016-Dec-05 18:28S 29°53' E 031°02'0 0.0
2016-Dec-05 17:31S 29°53' E 031°02'0 0.0
2016-Dec-05 16:31S 29°53' E 031°02'0 0.0
2016-Dec-05 15:32S 29°53' E 031°01'0 0.0
2016-Dec-05 14:33S 29°53' E 031°01'0 0.0
2016-Dec-05 13:33S 29°53' E 031°02'0 0.0
2016-Dec-05 12:33S 29°53' E 031°02'0 0.0
2016-Dec-05 11:29S 29°53' E 031°02'0 0.0
2016-Dec-05 10:33S 29°53' E 031°02'0 0.0
2016-Dec-05 09:33S 29°53' E 031°01'0 0.0
2016-Dec-05 08:27S 29°53' E 031°02'0 0.0
2016-Dec-05 07:29S 29°53' E 031°01'0 0.0
2016-Dec-05 06:32S 29°53' E 031°02'0 0.0
2016-Dec-05 05:31S 29°53' E 031°01'0 0.0
2016-Dec-05 04:31S 29°53' E 031°02'0 0.0
2016-Dec-05 03:31S 29°53' E 031°02'0 0.0
2016-Dec-05 02:32S 29°53' E 031°02'0 0.0
2016-Dec-05 01:32S 29°53' E 031°02'0 0.0
2016-Dec-05 00:31S 29°53' E 031°02'0 0.0
2016-Dec-04 23:28S 29°53' E 031°02'0 0.0
2016-Dec-04 22:32S 29°53' E 031°01'0 0.0
2016-Dec-04 21:33S 29°53' E 031°02'0 0.0
2016-Dec-04 20:33S 29°53' E 031°02'0 0.0
2016-Dec-04 19:33S 29°53' E 031°02'0 0.0
2016-Dec-04 18:25S 29°53' E 031°01'0 0.0
2016-Dec-04 17:31S 29°53' E 031°02'0 0.0
2016-Dec-04 16:32S 29°53' E 031°02'0 0.0
2016-Dec-04 15:32S 29°53' E 031°02'0 0.0
2016-Dec-04 14:31S 29°53' E 031°02'0 0.0
2016-Dec-04 13:32S 29°53' E 031°02'0 0.0
2016-Dec-04 12:33S 29°53' E 031°02'0 0.0
2016-Dec-04 11:31S 29°53' E 031°02'0 0.0
2016-Dec-04 10:31S 29°53' E 031°02'0 0.0
2016-Dec-04 09:31S 29°53' E 031°02'0 0.0
2016-Dec-04 08:31S 29°53' E 031°02'0 0.0
2016-Dec-04 07:28S 29°53' E 031°02'0 0.0
2016-Dec-04 06:32S 29°53' E 031°02'0 0.0
2016-Dec-04 05:32S 29°53' E 031°02'0 0.0
2016-Dec-04 04:28S 29°53' E 031°02'0 0.0
2016-Dec-04 03:26S 29°53' E 031°02'0 0.0
2016-Dec-04 02:33S 29°53' E 031°02'0 0.0
2016-Dec-04 01:33S 29°53' E 031°01'0 0.0
2016-Dec-04 00:28S 29°53' E 031°02'0 0.0
2016-Dec-03 23:28S 29°53' E 031°02'0 0.0
2016-Dec-03 22:31S 29°53' E 031°01'0 0.0
2016-Dec-03 21:28S 29°53' E 031°02'0 0.0
2016-Dec-03 20:27S 29°53' E 031°02'1 0.6
2016-Dec-03 19:33S 29°53' E 031°02'5 4.9
2016-Dec-03 18:34S 29°49' E 031°06'2 2.2
2016-Dec-03 17:34S 29°48' E 031°08'8 7.6
2016-Dec-03 16:33S 29°41' E 031°11'4 3.6
2016-Dec-03 15:31S 29°37' E 031°11'0 0.0
2016-Dec-03 14:32S 29°37' E 031°11'0 0.0
2016-Dec-03 13:32S 29°37' E 031°11'0 0.0
2016-Dec-03 12:32S 29°37' E 031°11'0 0.0
2016-Dec-03 11:32S 29°37' E 031°11'0 0.0
2016-Dec-03 10:22S 29°37' E 031°11'0 0.1
2016-Dec-03 09:32S 29°37' E 031°11'0 0.0
2016-Dec-03 08:32S 29°37' E 031°11'0 0.0
2016-Dec-03 07:31S 29°37' E 031°11'0 0.0
2016-Dec-03 06:31S 29°37' E 031°11'0 0.0
2016-Dec-03 05:32S 29°37' E 031°11'0 0.0
2016-Dec-03 04:32S 29°37' E 031°11'0 0.0
2016-Dec-03 03:30S 29°37' E 031°11'0 0.0
2016-Dec-03 02:31S 29°37' E 031°11'0 0.0
2016-Dec-03 01:32S 29°37' E 031°11'0 0.0
2016-Dec-03 00:31S 29°37' E 031°11'0 0.0
2016-Dec-02 23:33S 29°37' E 031°11'0 0.0
2016-Dec-02 22:31S 29°37' E 031°11'0 0.0
2016-Dec-02 21:31S 29°37' E 031°11'0 0.0
2016-Dec-02 20:25S 29°37' E 031°11'0 0.0
2016-Dec-02 19:32S 29°37' E 031°11'0 0.0
2016-Dec-02 18:32S 29°37' E 031°11'0 0.0
2016-Dec-02 17:31S 29°37' E 031°11'0 0.1
2016-Dec-02 16:31S 29°37' E 031°11'0 0.0
2016-Dec-02 15:31S 29°37' E 031°11'0 0.0
2016-Dec-02 14:32S 29°37' E 031°11'0 0.0
2016-Dec-02 13:31S 29°37' E 031°11'0 0.0
2016-Dec-02 12:28S 29°37' E 031°11'0 0.0
2016-Dec-02 11:33S 29°37' E 031°11'0 0.0
2016-Dec-02 10:32S 29°37' E 031°11'0 0.0
2016-Dec-02 09:31S 29°37' E 031°11'0 0.0
2016-Dec-02 08:33S 29°37' E 031°11'0 0.0
2016-Dec-02 07:32S 29°37' E 031°11'0 0.0
2016-Dec-02 06:31S 29°37' E 031°11'0 0.0
2016-Dec-02 05:32S 29°37' E 031°11'0 0.1
2016-Dec-02 04:32S 29°37' E 031°11'0 0.0
2016-Dec-02 03:31S 29°37' E 031°11'0 0.0
2016-Dec-02 02:26S 29°37' E 031°11'0 0.0
2016-Dec-02 01:32S 29°37' E 031°11'0 0.0
2016-Dec-02 00:31S 29°37' E 031°11'0 0.0
2016-Dec-01 23:32S 29°37' E 031°11'0 0.0
2016-Dec-01 22:32S 29°37' E 031°11'0 0.0
2016-Dec-01 21:32S 29°37' E 031°11'0 0.1
2016-Dec-01 20:31S 29°37' E 031°11'0 0.0
2016-Dec-01 19:31S 29°37' E 031°11'0 0.0
2016-Dec-01 18:32S 29°37' E 031°11'0 0.0
2016-Dec-01 17:32S 29°37' E 031°11'0 0.0
2016-Dec-01 16:32S 29°37' E 031°11'0 0.1
2016-Dec-01 15:32S 29°37' E 031°11'0 0.0
2016-Dec-01 14:33S 29°37' E 031°11'0 0.0
2016-Dec-01 13:28S 29°37' E 031°11'0 0.1
2016-Dec-01 12:31S 29°37' E 031°11'0 0.1
2016-Dec-01 11:33S 29°37' E 031°11'0 0.1
2016-Dec-01 10:33S 29°37' E 031°11'0 0.0
2016-Dec-01 09:33S 29°37' E 031°11'0 0.0
2016-Dec-01 08:31S 29°37' E 031°11'0 0.1
2016-Dec-01 07:31S 29°37' E 031°11'0 0.1
2016-Dec-01 06:33S 29°37' E 031°11'0 0.0
2016-Dec-01 05:26S 29°37' E 031°11'0 0.0
2016-Dec-01 04:32S 29°37' E 031°11'0 0.0
2016-Dec-01 03:32S 29°37' E 031°11'0 0.0
2016-Dec-01 02:33S 29°37' E 031°11'0 0.0
2016-Dec-01 01:33S 29°37' E 031°11'0 0.0
2016-Dec-01 00:32S 29°37' E 031°11'0 0.0
2016-Nov-30 23:32S 29°37' E 031°11'0 0.0
2016-Nov-30 22:32S 29°37' E 031°11'0 0.0
2016-Nov-30 21:28S 29°37' E 031°11'0 0.0
2016-Nov-30 20:31S 29°37' E 031°11'0 0.0
2016-Nov-30 19:28S 29°37' E 031°11'0 0.0
2016-Nov-30 18:31S 29°37' E 031°11'0 0.0
2016-Nov-30 17:31S 29°37' E 031°11'0 0.0
2016-Nov-30 16:26S 29°37' E 031°11'1 1.7
2016-Nov-30 15:33S 29°38' E 031°11'9 9.3
2016-Nov-30 14:33S 29°47' E 031°16'1 0.8
2016-Nov-30 13:33S 29°47' E 031°17'1 0.9
2016-Nov-30 12:34S 29°47' E 031°18'1 0.8
2016-Nov-30 11:33S 29°47' E 031°19'1 0.9
2016-Nov-30 10:34S 29°48' E 031°20'1 0.9
2016-Nov-30 09:33S 29°48' E 031°21'1 1.0
2016-Nov-30 08:33S 29°48' E 031°22'1 0.8
2016-Nov-30 07:34S 29°48' E 031°23'1 0.8
2016-Nov-30 06:33S 29°48' E 031°24'1 0.5
2016-Nov-30 05:33S 29°49' E 031°24'9 8.7
2016-Nov-30 04:33S 29°54' E 031°17'1313.5
2016-Nov-30 03:33S 30°05' E 031°07'1515.2
2016-Nov-30 02:33S 30°18' E 030°58'  
Track history (hours):
 
Tides and Currents Weather Stations Pressure Air Temp Water Temp Dewpoint Dewpoint Depression Visibility Wind Speed Wind Dir Waves Ship Positions

Zim Mumbai

Last reported at 2016-Dec-08 23:28 UTC. Time now 2016-Dec-09 00:01 UTC.
Position S 33°60' E 018°09'.

Length 195.7 m; beam 32.3 m; draft 11.5 m.

Type: Cargo ship. MMSI: 212160000.

Date/timePositionNaut miles runAvg speedWind from/ knotsBaromVisibWave heightAir tempDewpointWater temp
2016-Dec-08 23:28S 33°60' E 018°09'1 1.0
2016-Dec-08 22:33S 33°59' E 018°08'2 1.6
2016-Dec-08 21:21S 33°59' E 018°10'4 0.6
2016-Dec-08 15:07S 33°60' E 018°06'  
2016-Dec-06 00:22S 30°27' E 030°49'1012.7
2016-Dec-05 23:33S 30°19' E 030°55'1313.4
2016-Dec-05 22:33S 30°08' E 031°04'1211.8
2016-Dec-05 21:33S 29°58' E 031°11'9 8.6
2016-Dec-05 20:33S 29°51' E 031°04'3 2.8
2016-Dec-05 19:32S 29°53' E 031°02'0 0.0
2016-Dec-05 18:28S 29°53' E 031°02'0 0.0
2016-Dec-05 17:31S 29°53' E 031°02'0 0.0
2016-Dec-05 16:31S 29°53' E 031°02'0 0.0
2016-Dec-05 15:32S 29°53' E 031°01'0 0.0
2016-Dec-05 14:33S 29°53' E 031°01'0 0.0
2016-Dec-05 13:33S 29°53' E 031°02'0 0.0
2016-Dec-05 12:33S 29°53' E 031°02'0 0.0
2016-Dec-05 11:29S 29°53' E 031°02'0 0.0
2016-Dec-05 10:33S 29°53' E 031°02'0 0.0
2016-Dec-05 09:33S 29°53' E 031°01'0 0.0
2016-Dec-05 08:27S 29°53' E 031°02'0 0.0
2016-Dec-05 07:29S 29°53' E 031°01'0 0.0
2016-Dec-05 06:32S 29°53' E 031°02'0 0.0
2016-Dec-05 05:31S 29°53' E 031°01'0 0.0
2016-Dec-05 04:31S 29°53' E 031°02'0 0.0
2016-Dec-05 03:31S 29°53' E 031°02'0 0.0
2016-Dec-05 02:32S 29°53' E 031°02'0 0.0
2016-Dec-05 01:32S 29°53' E 031°02'0 0.0
2016-Dec-05 00:31S 29°53' E 031°02'0 0.0
2016-Dec-04 23:28S 29°53' E 031°02'0 0.0
2016-Dec-04 22:32S 29°53' E 031°01'0 0.0
2016-Dec-04 21:33S 29°53' E 031°02'0 0.0
2016-Dec-04 20:33S 29°53' E 031°02'0 0.0
2016-Dec-04 19:33S 29°53' E 031°02'0 0.0
2016-Dec-04 18:25S 29°53' E 031°01'0 0.0
2016-Dec-04 17:31S 29°53' E 031°02'0 0.0
2016-Dec-04 16:32S 29°53' E 031°02'0 0.0
2016-Dec-04 15:32S 29°53' E 031°02'0 0.0
2016-Dec-04 14:31S 29°53' E 031°02'0 0.0
2016-Dec-04 13:32S 29°53' E 031°02'0 0.0
2016-Dec-04 12:33S 29°53' E 031°02'0 0.0
2016-Dec-04 11:31S 29°53' E 031°02'0 0.0
2016-Dec-04 10:31S 29°53' E 031°02'0 0.0
2016-Dec-04 09:31S 29°53' E 031°02'0 0.0
2016-Dec-04 08:31S 29°53' E 031°02'0 0.0
2016-Dec-04 07:28S 29°53' E 031°02'0 0.0
2016-Dec-04 06:32S 29°53' E 031°02'0 0.0
2016-Dec-04 05:32S 29°53' E 031°02'0 0.0
2016-Dec-04 04:28S 29°53' E 031°02'0 0.0
2016-Dec-04 03:26S 29°53' E 031°02'0 0.0
2016-Dec-04 02:33S 29°53' E 031°02'0 0.0
2016-Dec-04 01:33S 29°53' E 031°01'0 0.0
2016-Dec-04 00:28S 29°53' E 031°02'0 0.0
2016-Dec-03 23:28S 29°53' E 031°02'0 0.0
2016-Dec-03 22:31S 29°53' E 031°01'0 0.0
2016-Dec-03 21:28S 29°53' E 031°02'0 0.0
2016-Dec-03 20:27S 29°53' E 031°02'1 0.6
2016-Dec-03 19:33S 29°53' E 031°02'5 4.9
2016-Dec-03 18:34S 29°49' E 031°06'2 2.2
2016-Dec-03 17:34S 29°48' E 031°08'8 7.6
2016-Dec-03 16:33S 29°41' E 031°11'4 3.6
2016-Dec-03 15:31S 29°37' E 031°11'0 0.0
2016-Dec-03 14:32S 29°37' E 031°11'0 0.0
2016-Dec-03 13:32S 29°37' E 031°11'0 0.0
2016-Dec-03 12:32S 29°37' E 031°11'0 0.0
2016-Dec-03 11:32S 29°37' E 031°11'0 0.0
2016-Dec-03 10:22S 29°37' E 031°11'0 0.1
2016-Dec-03 09:32S 29°37' E 031°11'0 0.0
2016-Dec-03 08:32S 29°37' E 031°11'0 0.0
2016-Dec-03 07:31S 29°37' E 031°11'0 0.0
2016-Dec-03 06:31S 29°37' E 031°11'0 0.0
2016-Dec-03 05:32S 29°37' E 031°11'0 0.0
2016-Dec-03 04:32S 29°37' E 031°11'0 0.0
2016-Dec-03 03:30S 29°37' E 031°11'0 0.0
2016-Dec-03 02:31S 29°37' E 031°11'0 0.0
2016-Dec-03 01:32S 29°37' E 031°11'0 0.0
2016-Dec-03 00:31S 29°37' E 031°11'0 0.0
2016-Dec-02 23:33S 29°37' E 031°11'0 0.0
2016-Dec-02 22:31S 29°37' E 031°11'0 0.0
2016-Dec-02 21:31S 29°37' E 031°11'0 0.0
2016-Dec-02 20:25S 29°37' E 031°11'0 0.0
2016-Dec-02 19:32S 29°37' E 031°11'0 0.0
2016-Dec-02 18:32S 29°37' E 031°11'0 0.0
2016-Dec-02 17:31S 29°37' E 031°11'0 0.1
2016-Dec-02 16:31S 29°37' E 031°11'0 0.0
2016-Dec-02 15:31S 29°37' E 031°11'0 0.0
2016-Dec-02 14:32S 29°37' E 031°11'0 0.0
2016-Dec-02 13:31S 29°37' E 031°11'0 0.0
2016-Dec-02 12:28S 29°37' E 031°11'0 0.0
2016-Dec-02 11:33S 29°37' E 031°11'0 0.0
2016-Dec-02 10:32S 29°37' E 031°11'0 0.0
2016-Dec-02 09:31S 29°37' E 031°11'0 0.0
2016-Dec-02 08:33S 29°37' E 031°11'0 0.0
2016-Dec-02 07:32S 29°37' E 031°11'0 0.0
2016-Dec-02 06:31S 29°37' E 031°11'0 0.0
2016-Dec-02 05:32S 29°37' E 031°11'0 0.1
2016-Dec-02 04:32S 29°37' E 031°11'0 0.0
2016-Dec-02 03:31S 29°37' E 031°11'0 0.0
2016-Dec-02 02:26S 29°37' E 031°11'0 0.0
2016-Dec-02 01:32S 29°37' E 031°11'0 0.0
2016-Dec-02 00:31S 29°37' E 031°11'0 0.0
2016-Dec-01 23:32S 29°37' E 031°11'0 0.0
2016-Dec-01 22:32S 29°37' E 031°11'0 0.0
2016-Dec-01 21:32S 29°37' E 031°11'0 0.1
2016-Dec-01 20:31S 29°37' E 031°11'0 0.0
2016-Dec-01 19:31S 29°37' E 031°11'0 0.0
2016-Dec-01 18:32S 29°37' E 031°11'0 0.0
2016-Dec-01 17:32S 29°37' E 031°11'0 0.0
2016-Dec-01 16:32S 29°37' E 031°11'0 0.1
2016-Dec-01 15:32S 29°37' E 031°11'0 0.0
2016-Dec-01 14:33S 29°37' E 031°11'0 0.0
2016-Dec-01 13:28S 29°37' E 031°11'0 0.1
2016-Dec-01 12:31S 29°37' E 031°11'0 0.1
2016-Dec-01 11:33S 29°37' E 031°11'0 0.1
2016-Dec-01 10:33S 29°37' E 031°11'0 0.0
2016-Dec-01 09:33S 29°37' E 031°11'0 0.0
2016-Dec-01 08:31S 29°37' E 031°11'0 0.1
2016-Dec-01 07:31S 29°37' E 031°11'0 0.1
2016-Dec-01 06:33S 29°37' E 031°11'0 0.0
2016-Dec-01 05:26S 29°37' E 031°11'0 0.0
2016-Dec-01 04:32S 29°37' E 031°11'0 0.0
2016-Dec-01 03:32S 29°37' E 031°11'0 0.0
2016-Dec-01 02:33S 29°37' E 031°11'0 0.0
2016-Dec-01 01:33S 29°37' E 031°11'0 0.0
2016-Dec-01 00:32S 29°37' E 031°11'0 0.0
2016-Nov-30 23:32S 29°37' E 031°11'0 0.0
2016-Nov-30 22:32S 29°37' E 031°11'0 0.0
2016-Nov-30 21:28S 29°37' E 031°11'0 0.0
2016-Nov-30 20:31S 29°37' E 031°11'0 0.0
2016-Nov-30 19:28S 29°37' E 031°11'0 0.0
2016-Nov-30 18:31S 29°37' E 031°11'0 0.0
2016-Nov-30 17:31S 29°37' E 031°11'0 0.0
2016-Nov-30 16:26S 29°37' E 031°11'1 1.7
2016-Nov-30 15:33S 29°38' E 031°11'9 9.3
2016-Nov-30 14:33S 29°47' E 031°16'1 0.8
2016-Nov-30 13:33S 29°47' E 031°17'1 0.9
2016-Nov-30 12:34S 29°47' E 031°18'1 0.8
2016-Nov-30 11:33S 29°47' E 031°19'1 0.9
2016-Nov-30 10:34S 29°48' E 031°20'1 0.9
2016-Nov-30 09:33S 29°48' E 031°21'1 1.0
2016-Nov-30 08:33S 29°48' E 031°22'1 0.8
2016-Nov-30 07:34S 29°48' E 031°23'1 0.8
2016-Nov-30 06:33S 29°48' E 031°24'1 0.5
2016-Nov-30 05:33S 29°49' E 031°24'9 8.7
2016-Nov-30 04:33S 29°54' E 031°17'1313.5
2016-Nov-30 03:33S 30°05' E 031°07'1515.2
2016-Nov-30 02:33S 30°18' E 030°58'  

Dump ship's entire track history